createdAt,value
2018-11-13T00:00:14.289Z,8.20
2018-11-13T00:02:42.709Z,8.20
2018-11-13T00:05:10.989Z,8.20
2018-11-13T00:07:39.346Z,8.20
2018-11-13T00:10:08.481Z,8.20
2018-11-13T00:12:36.658Z,8.10
2018-11-13T00:15:04.912Z,8.10
2018-11-13T00:17:33.066Z,8.10
2018-11-13T00:20:01.234Z,8.00
2018-11-13T00:22:29.625Z,7.90
2018-11-13T00:24:57.777Z,7.90
2018-11-13T00:27:25.978Z,7.80
2018-11-13T00:29:54.103Z,7.70
2018-11-13T00:32:22.335Z,7.60
2018-11-13T00:34:50.506Z,7.60
2018-11-13T00:37:18.649Z,7.60
2018-11-13T00:39:46.839Z,7.60
2018-11-13T00:42:15.037Z,7.50
2018-11-13T00:44:43.187Z,7.60
2018-11-13T00:47:11.330Z,7.50
2018-11-13T00:49:39.496Z,7.50
2018-11-13T00:52:07.690Z,7.50
2018-11-13T00:54:35.923Z,7.50
2018-11-13T01:02:00.067Z,7.50
2018-11-13T01:04:28.198Z,7.60
2018-11-13T01:06:56.369Z,7.60
2018-11-13T01:09:24.513Z,7.70
2018-11-13T01:11:52.684Z,7.60
2018-11-13T01:14:20.835Z,7.60
2018-11-13T01:16:48.974Z,7.60
2018-11-13T01:19:17.123Z,7.50
2018-11-13T01:21:45.270Z,7.50
2018-11-13T01:24:13.434Z,7.40
2018-11-13T01:26:41.647Z,7.30
2018-11-13T01:29:09.830Z,7.30
2018-11-13T01:31:37.993Z,7.30
2018-11-13T01:34:06.169Z,7.20
2018-11-13T01:36:34.344Z,7.10
2018-11-13T01:39:02.596Z,7.00
2018-11-13T01:41:30.790Z,6.90
2018-11-13T01:43:58.975Z,6.70
2018-11-13T01:46:27.223Z,6.80
2018-11-13T01:48:55.748Z,7.10
2018-11-13T01:51:23.729Z,6.90
2018-11-13T01:53:51.938Z,7.00
2018-11-13T02:01:16.033Z,6.90
2018-11-13T02:03:44.258Z,6.90
2018-11-13T02:06:12.475Z,6.90
2018-11-13T02:08:40.689Z,6.90
2018-11-13T02:11:08.924Z,6.90
2018-11-13T02:13:37.249Z,6.80
2018-11-13T02:16:06.262Z,6.90
2018-11-13T02:18:34.519Z,6.90
2018-11-13T02:21:02.775Z,6.90
2018-11-13T02:23:30.989Z,6.80
2018-11-13T02:25:59.200Z,6.80
2018-11-13T02:28:27.425Z,6.70
2018-11-13T02:30:55.658Z,6.80
2018-11-13T02:33:23.886Z,6.90
2018-11-13T02:35:52.121Z,6.90
2018-11-13T02:38:20.401Z,6.90
2018-11-13T02:40:48.605Z,6.90
2018-11-13T02:43:16.839Z,6.80
2018-11-13T02:45:45.068Z,6.80
2018-11-13T02:48:13.309Z,6.90
2018-11-13T02:50:41.531Z,6.80
2018-11-13T02:53:09.750Z,6.90
2018-11-13T02:55:37.967Z,6.80
2018-11-13T03:03:02.140Z,6.90
2018-11-13T03:05:30.382Z,6.80
2018-11-13T03:07:58.692Z,6.80
2018-11-13T03:10:26.909Z,6.80
2018-11-13T03:12:55.133Z,6.80
2018-11-13T03:15:23.357Z,6.80
2018-11-13T03:17:51.579Z,6.70
2018-11-13T03:20:20.333Z,6.60
2018-11-13T03:22:49.031Z,6.50
2018-11-13T03:25:18.500Z,6.40
2018-11-13T03:27:46.709Z,6.40
2018-11-13T03:30:17.174Z,6.40
2018-11-13T03:32:45.676Z,6.30
2018-11-13T03:35:13.938Z,6.20
2018-11-13T03:37:42.329Z,6.20
2018-11-13T03:40:11.124Z,6.30
2018-11-13T03:42:39.386Z,6.30
2018-11-13T03:45:08.686Z,6.30
2018-11-13T03:47:36.879Z,6.30
2018-11-13T03:50:05.285Z,6.30
2018-11-13T03:52:33.444Z,6.30
2018-11-13T03:55:01.633Z,6.20
2018-11-13T03:57:29.812Z,6.20
2018-11-13T03:59:58.085Z,6.20
2018-11-13T04:02:26.220Z,6.30
2018-11-13T04:04:54.410Z,6.30
2018-11-13T04:07:22.563Z,6.40
2018-11-13T04:09:50.729Z,6.30
2018-11-13T04:12:18.885Z,6.30
2018-11-13T04:14:47.059Z,6.20
2018-11-13T04:17:15.205Z,6.20
2018-11-13T04:22:17.873Z,6.20
2018-11-13T04:24:46.021Z,6.20
2018-11-13T04:27:14.169Z,6.20
2018-11-13T04:29:42.335Z,6.30
2018-11-13T04:32:10.509Z,6.40
2018-11-13T04:34:38.669Z,6.30
2018-11-13T04:37:06.893Z,6.60
2018-11-13T04:39:35.041Z,6.70
2018-11-13T04:42:03.198Z,6.60
2018-11-13T04:44:31.361Z,6.60
2018-11-13T04:46:59.609Z,6.60
2018-11-13T04:49:27.762Z,6.50
2018-11-13T04:51:55.914Z,6.60
2018-11-13T04:54:24.073Z,6.60
2018-11-13T04:56:52.426Z,6.40
2018-11-13T04:59:21.131Z,7.00
2018-11-13T05:01:49.284Z,6.40
2018-11-13T05:04:17.443Z,6.30
2018-11-13T05:06:45.612Z,6.30
2018-11-13T05:11:41.752Z,6.30
2018-11-13T05:14:09.955Z,6.20
2018-11-13T05:16:38.125Z,6.20
2018-11-13T05:19:06.261Z,6.20
2018-11-13T05:21:34.440Z,6.30
2018-11-13T05:24:02.586Z,6.20
2018-11-13T05:26:30.745Z,6.20
2018-11-13T05:28:58.894Z,6.10
2018-11-13T05:31:27.059Z,6.00
2018-11-13T05:33:55.216Z,5.80
2018-11-13T05:36:23.370Z,5.80
2018-11-13T05:38:51.567Z,5.80
2018-11-13T05:41:19.725Z,5.80
2018-11-13T05:43:47.873Z,5.70
2018-11-13T05:46:16.051Z,5.80
2018-11-13T05:48:44.257Z,6.00
2018-11-13T05:51:12.413Z,6.00
2018-11-13T05:53:40.565Z,6.10
2018-11-13T05:56:08.733Z,6.10
2018-11-13T05:58:37.049Z,6.20
2018-11-13T06:01:05.312Z,6.20
2018-11-13T06:03:33.511Z,6.20
2018-11-13T06:06:01.662Z,6.20
2018-11-13T06:08:29.899Z,6.20
2018-11-13T06:13:25.967Z,6.20
2018-11-13T06:15:54.163Z,6.20
2018-11-13T06:18:22.421Z,6.20
2018-11-13T06:20:50.513Z,6.20
2018-11-13T06:23:25.541Z,6.30
2018-11-13T06:25:53.748Z,6.20
2018-11-13T06:28:21.932Z,6.20
2018-11-13T06:30:50.086Z,6.20
2018-11-13T06:33:18.348Z,6.30
2018-11-13T06:35:46.493Z,6.40
2018-11-13T06:38:14.641Z,6.50
2018-11-13T06:40:42.792Z,6.50
2018-11-13T06:43:10.963Z,6.40
2018-11-13T06:45:39.136Z,6.20
2018-11-13T06:48:07.310Z,6.20
2018-11-13T06:50:35.457Z,6.30
2018-11-13T06:53:03.630Z,6.40
2018-11-13T06:55:34.769Z,6.70
2018-11-13T07:00:31.341Z,6.90
2018-11-13T07:02:59.490Z,6.80
2018-11-13T07:05:27.641Z,6.60
2018-11-13T07:07:55.847Z,6.50
2018-11-13T07:10:25.234Z,6.40
2018-11-13T07:12:54.025Z,6.30
2018-11-13T07:15:23.270Z,6.40
2018-11-13T07:17:53.883Z,6.40
2018-11-13T07:20:23.040Z,6.40
2018-11-13T07:22:51.204Z,6.40
2018-11-13T07:25:19.484Z,6.40
2018-11-13T07:27:47.668Z,6.50
2018-11-13T07:30:17.191Z,6.50
2018-11-13T07:32:45.335Z,6.60
2018-11-13T07:35:14.641Z,6.60
2018-11-13T07:37:46.209Z,6.80
2018-11-13T07:40:14.381Z,6.80
2018-11-13T07:42:42.556Z,7.00
2018-11-13T07:45:12.367Z,7.00
2018-11-13T07:47:41.417Z,7.10
2018-11-13T07:50:10.342Z,7.20
2018-11-13T07:52:38.728Z,7.30
2018-11-13T07:55:07.587Z,7.60
2018-11-13T07:57:35.745Z,7.80
2018-11-13T08:00:04.238Z,7.80
2018-11-13T08:02:32.395Z,7.70
2018-11-13T08:05:00.559Z,7.90
2018-11-13T08:07:28.718Z,7.80
2018-11-13T08:09:56.881Z,8.00
2018-11-13T08:12:25.039Z,8.10
2018-11-13T08:14:53.195Z,8.30
2018-11-13T08:17:21.388Z,8.60
2018-11-13T08:19:49.564Z,8.70
2018-11-13T08:22:17.817Z,9.00
2018-11-13T08:24:45.875Z,9.30
2018-11-13T08:27:14.029Z,9.50
2018-11-13T08:29:42.249Z,10.10
2018-11-13T08:32:10.420Z,10.30
2018-11-13T08:34:38.595Z,10.60
2018-11-13T08:37:06.791Z,11.00
2018-11-13T08:39:34.946Z,11.30
2018-11-13T08:42:03.090Z,11.40
2018-11-13T08:44:31.271Z,11.50
2018-11-13T08:46:59.419Z,11.60
2018-11-13T08:49:27.582Z,11.60
2018-11-13T08:51:55.817Z,11.60
2018-11-13T08:54:23.983Z,11.60
2018-11-13T08:56:52.136Z,11.60
2018-11-13T08:59:20.415Z,10.80
2018-11-13T09:01:48.438Z,11.80
2018-11-13T09:04:16.585Z,11.90
2018-11-13T09:06:44.752Z,12.10
2018-11-13T09:09:14.057Z,12.20
2018-11-13T09:11:42.332Z,11.90
2018-11-13T09:14:10.614Z,12.30
2018-11-13T09:16:38.771Z,12.60
2018-11-13T09:19:07.167Z,12.70
2018-11-13T09:21:35.452Z,12.70
2018-11-13T09:24:03.600Z,12.80
2018-11-13T09:26:32.198Z,12.90
2018-11-13T09:29:00.356Z,13.00
2018-11-13T09:31:28.555Z,13.30
2018-11-13T09:33:56.633Z,13.70
2018-11-13T09:36:24.795Z,14.10
2018-11-13T09:38:52.934Z,14.40
2018-11-13T09:41:21.150Z,14.80
2018-11-13T09:43:49.306Z,15.30
2018-11-13T09:46:17.484Z,15.70
2018-11-13T09:48:45.623Z,16.10
2018-11-13T09:51:13.784Z,16.40
2018-11-13T09:53:42.019Z,16.70
2018-11-13T09:56:10.172Z,16.90
2018-11-13T09:58:38.295Z,17.10
2018-11-13T10:01:06.916Z,17.00
2018-11-13T10:03:35.608Z,17.00
2018-11-13T10:06:03.175Z,16.80
2018-11-13T10:08:31.284Z,17.30
2018-11-13T10:10:59.438Z,17.40
2018-11-13T10:13:27.610Z,17.50
2018-11-13T10:15:55.767Z,17.80
2018-11-13T10:18:24.129Z,18.20
2018-11-13T10:20:52.162Z,18.40
2018-11-13T10:23:20.332Z,18.70
2018-11-13T10:25:48.495Z,18.70
2018-11-13T10:28:16.668Z,18.60
2018-11-13T10:30:44.813Z,18.50
2018-11-13T10:33:12.971Z,18.40
2018-11-13T10:35:41.110Z,18.30
2018-11-13T10:38:09.308Z,18.20
2018-11-13T10:40:37.661Z,18.10
2018-11-13T10:43:05.663Z,17.80
2018-11-13T10:45:33.832Z,17.60
2018-11-13T10:48:01.970Z,17.50
2018-11-13T10:50:30.237Z,17.40
2018-11-13T10:52:58.265Z,17.30
2018-11-13T10:55:26.419Z,16.90
2018-11-13T10:57:54.579Z,16.50
2018-11-13T11:01:31.722Z,15.70
2018-11-13T11:04:07.171Z,15.80
2018-11-13T11:06:35.376Z,15.40
2018-11-13T11:09:04.530Z,15.30
2018-11-13T11:11:32.819Z,15.30
2018-11-13T11:14:01.063Z,15.20
2018-11-13T11:16:29.050Z,15.10
2018-11-13T11:18:57.296Z,15.10
2018-11-13T11:21:25.330Z,15.00
2018-11-13T11:23:53.648Z,14.70
2018-11-13T11:26:21.741Z,14.70
2018-11-13T11:28:49.904Z,15.00
2018-11-13T11:31:24.565Z,14.60
2018-11-13T11:33:52.711Z,14.70
2018-11-13T11:36:20.917Z,14.70
2018-11-13T11:38:49.188Z,14.70
2018-11-13T11:41:17.233Z,14.70
2018-11-13T11:43:45.382Z,14.70
2018-11-13T11:46:13.533Z,14.60
2018-11-13T11:48:41.692Z,14.40
2018-11-13T11:51:09.950Z,14.30
2018-11-13T11:53:38.230Z,14.30
2018-11-13T11:56:06.339Z,14.30
2018-11-13T11:58:34.517Z,14.20
2018-11-13T12:01:02.674Z,14.20
2018-11-13T12:03:30.838Z,14.20
2018-11-13T12:05:58.996Z,14.20
2018-11-13T12:08:27.150Z,14.30
2018-11-13T12:10:55.300Z,14.30
2018-11-13T12:13:23.492Z,14.00
2018-11-13T12:15:51.635Z,13.90
2018-11-13T12:18:19.802Z,14.00
2018-11-13T12:20:47.960Z,14.00
2018-11-13T12:23:16.103Z,14.00
2018-11-13T12:25:44.338Z,14.00
2018-11-13T12:28:12.407Z,14.10
2018-11-13T12:30:40.560Z,13.90
2018-11-13T12:33:08.720Z,13.90
2018-11-13T12:35:36.868Z,13.50
2018-11-13T12:38:05.311Z,13.40
2018-11-13T12:40:33.515Z,13.60
2018-11-13T12:43:01.648Z,13.60
2018-11-13T12:45:29.808Z,13.70
2018-11-13T12:47:57.983Z,13.60
2018-11-13T12:50:30.471Z,13.40
2018-11-13T12:52:58.618Z,13.60
2018-11-13T12:55:26.819Z,13.60
2018-11-13T12:57:54.925Z,13.50
2018-11-13T13:00:24.232Z,13.60
2018-11-13T13:02:52.380Z,13.70
2018-11-13T13:05:20.530Z,13.60
2018-11-13T13:07:48.689Z,13.50
2018-11-13T13:10:18.168Z,13.50
2018-11-13T13:12:46.324Z,13.50
2018-11-13T13:15:15.601Z,13.50
2018-11-13T13:17:44.305Z,13.60
2018-11-13T13:20:15.964Z,13.60
2018-11-13T13:22:45.060Z,13.60
2018-11-13T13:25:14.374Z,13.50
2018-11-13T13:27:42.583Z,13.40
2018-11-13T13:30:14.087Z,13.40
2018-11-13T13:32:42.239Z,13.30
2018-11-13T13:35:32.243Z,13.40
2018-11-13T13:38:00.418Z,13.50
2018-11-13T13:40:28.615Z,13.60
2018-11-13T13:42:57.390Z,13.60
2018-11-13T13:45:25.559Z,13.60
2018-11-13T13:47:53.693Z,13.60
2018-11-13T13:50:21.841Z,13.50
2018-11-13T13:52:50.097Z,13.50
2018-11-13T13:55:18.982Z,13.30
2018-11-13T13:57:47.117Z,13.50
2018-11-13T14:00:15.443Z,13.50
2018-11-13T14:02:43.525Z,13.40
2018-11-13T14:05:11.788Z,13.40
2018-11-13T14:07:40.028Z,13.40
2018-11-13T14:10:08.621Z,13.40
2018-11-13T14:12:36.788Z,13.30
2018-11-13T14:15:07.291Z,13.40
2018-11-13T14:17:35.389Z,13.30
2018-11-13T14:20:03.542Z,13.40
2018-11-13T14:22:31.790Z,13.40
2018-11-13T14:24:59.947Z,13.30
2018-11-13T14:27:28.120Z,13.30
2018-11-13T14:29:56.284Z,13.40
2018-11-13T14:32:24.488Z,13.40
2018-11-13T14:34:52.636Z,13.40
2018-11-13T14:37:20.839Z,13.40
2018-11-13T14:39:49.011Z,13.40
2018-11-13T14:42:17.278Z,13.40
2018-11-13T14:44:45.455Z,13.30
2018-11-13T14:47:13.740Z,13.30
2018-11-13T14:49:41.891Z,13.30
2018-11-13T14:59:34.034Z,13.30
2018-11-13T15:02:02.186Z,13.30
2018-11-13T15:04:30.390Z,13.30
2018-11-13T15:06:58.554Z,13.50
2018-11-13T15:09:26.912Z,13.60
2018-11-13T15:11:54.949Z,13.70
2018-11-13T15:14:23.090Z,13.60
2018-11-13T15:16:51.236Z,13.60
2018-11-13T15:19:19.393Z,13.60
2018-11-13T15:21:47.543Z,13.50
2018-11-13T15:24:15.755Z,13.50
2018-11-13T15:26:43.838Z,13.50
2018-11-13T15:29:11.988Z,13.40
2018-11-13T15:31:40.360Z,13.30
2018-11-13T15:34:08.516Z,13.30
2018-11-13T15:36:36.716Z,13.30
2018-11-13T15:39:08.287Z,13.20
2018-11-13T15:41:36.480Z,13.20
2018-11-13T15:44:04.980Z,13.10
2018-11-13T15:46:33.167Z,13.10
2018-11-13T15:49:01.335Z,13.10
2018-11-13T15:51:29.550Z,13.20
2018-11-13T15:53:57.634Z,13.00
2018-11-13T15:56:25.827Z,13.20
2018-11-13T16:01:22.017Z,13.20
2018-11-13T16:03:50.170Z,13.20
2018-11-13T16:06:18.470Z,13.20
2018-11-13T16:08:46.701Z,13.10
2018-11-13T16:11:14.659Z,13.10
2018-11-13T16:13:42.815Z,13.10
2018-11-13T16:16:11.044Z,13.10
2018-11-13T16:18:39.225Z,13.00
2018-11-13T16:21:07.416Z,13.00
2018-11-13T16:23:35.564Z,12.80
2018-11-13T16:26:03.722Z,12.80
2018-11-13T16:28:31.875Z,12.80
2018-11-13T16:31:00.142Z,12.80
2018-11-13T16:33:28.395Z,12.70
2018-11-13T16:35:56.567Z,12.70
2018-11-13T16:38:24.808Z,12.80
2018-11-13T16:40:52.850Z,12.80
2018-11-13T16:43:21.011Z,12.80
2018-11-13T16:45:49.201Z,12.80
2018-11-13T16:48:17.477Z,13.20
2018-11-13T16:50:45.536Z,12.80
2018-11-13T16:53:13.691Z,13.30
2018-11-13T16:58:16.047Z,12.80
2018-11-13T17:00:44.347Z,12.70
2018-11-13T17:03:12.465Z,12.70
2018-11-13T17:05:40.735Z,12.70
2018-11-13T17:08:08.976Z,12.70
2018-11-13T17:10:41.024Z,12.70
2018-11-13T17:13:09.419Z,12.70
2018-11-13T17:15:37.805Z,12.70
2018-11-13T17:18:06.301Z,12.70
2018-11-13T17:20:34.545Z,12.70
2018-11-13T17:23:02.705Z,12.80
2018-11-13T17:25:32.387Z,12.80
2018-11-13T17:28:00.559Z,12.70
2018-11-13T17:30:33.961Z,12.70
2018-11-13T17:33:03.182Z,12.60
2018-11-13T17:35:31.950Z,12.60
2018-11-13T17:38:00.955Z,12.60
2018-11-13T17:40:30.544Z,12.70
2018-11-13T17:42:59.987Z,12.60
2018-11-13T17:45:29.498Z,12.60
2018-11-13T17:47:57.760Z,12.50
2018-11-13T17:50:29.127Z,12.50
2018-11-13T17:52:57.319Z,12.40
2018-11-13T17:55:25.727Z,12.40
2018-11-13T17:57:56.259Z,12.30
2018-11-13T18:00:27.915Z,12.10
2018-11-13T18:02:56.180Z,12.30
2018-11-13T18:05:25.286Z,12.40
2018-11-13T18:07:54.163Z,12.30
2018-11-13T18:10:22.424Z,12.20
2018-11-13T18:12:50.631Z,12.20
2018-11-13T18:15:20.616Z,12.10
2018-11-13T18:17:49.014Z,12.20
2018-11-13T18:20:18.517Z,12.10
2018-11-13T18:22:47.012Z,12.10
2018-11-13T18:25:15.198Z,12.20
2018-11-13T18:27:48.139Z,12.10
2018-11-13T18:30:23.308Z,12.10
2018-11-13T18:32:51.785Z,12.10
2018-11-13T18:35:22.298Z,12.10
2018-11-13T18:37:51.137Z,12.10
2018-11-13T18:40:21.033Z,12.10
2018-11-13T18:42:49.917Z,12.00
2018-11-13T18:45:20.411Z,12.00
2018-11-13T18:47:48.679Z,11.90
2018-11-13T18:50:20.730Z,11.90
2018-11-13T18:52:48.858Z,11.80
2018-11-13T18:55:17.310Z,11.60
2018-11-13T18:57:45.541Z,11.60
2018-11-13T19:00:19.913Z,11.50
2018-11-13T19:02:48.464Z,11.40
2018-11-13T19:05:17.154Z,11.40
2018-11-13T19:07:45.426Z,11.20
2018-11-13T19:10:17.045Z,11.80
2018-11-13T19:12:45.805Z,11.40
2018-11-13T19:15:15.012Z,11.40
2018-11-13T19:17:43.264Z,11.20
2018-11-13T19:20:15.899Z,11.30
2018-11-13T19:22:44.019Z,11.40
2018-11-13T19:25:17.561Z,11.30
2018-11-13T19:27:46.631Z,11.30
2018-11-13T19:30:15.797Z,11.40
2018-11-13T19:32:44.202Z,11.40
2018-11-13T19:35:12.966Z,11.30
2018-11-13T19:37:41.083Z,11.30
2018-11-13T19:40:14.760Z,11.10
2018-11-13T19:42:43.435Z,11.30
2018-11-13T19:45:11.702Z,11.30
2018-11-13T19:47:39.785Z,11.40
2018-11-13T19:50:10.074Z,11.40
2018-11-13T19:52:38.296Z,11.50
2018-11-13T19:55:07.473Z,11.50
2018-11-13T19:57:35.760Z,11.50
2018-11-13T20:00:04.234Z,11.50
2018-11-13T20:02:32.416Z,11.50
2018-11-13T20:05:00.607Z,11.50
2018-11-13T20:07:28.772Z,11.50
2018-11-13T20:09:57.009Z,11.60
2018-11-13T20:12:25.130Z,11.50
2018-11-13T20:14:53.355Z,11.60
2018-11-13T20:17:21.528Z,11.60
2018-11-13T20:19:49.734Z,11.70
2018-11-13T20:22:17.908Z,11.70
2018-11-13T20:24:46.152Z,11.60
2018-11-13T20:29:42.242Z,11.90
2018-11-13T20:32:10.457Z,11.50
2018-11-13T20:34:38.632Z,11.60
2018-11-13T20:37:06.828Z,11.60
2018-11-13T20:39:34.981Z,11.60
2018-11-13T20:42:03.164Z,11.60
2018-11-13T20:44:31.372Z,11.50
2018-11-13T20:46:59.525Z,11.60
2018-11-13T20:49:27.722Z,11.50
2018-11-13T20:51:55.915Z,11.50
2018-11-13T20:54:24.175Z,11.30
2018-11-13T20:56:52.383Z,11.40
2018-11-13T20:59:20.636Z,11.30
2018-11-13T21:01:48.838Z,11.30
2018-11-13T21:04:16.968Z,11.30
2018-11-13T21:06:45.180Z,11.20
2018-11-13T21:09:13.344Z,11.20
2018-11-13T21:11:41.948Z,11.10
2018-11-13T21:14:10.135Z,11.00
2018-11-13T21:16:38.317Z,10.70
2018-11-13T21:19:06.541Z,10.50
2018-11-13T21:21:41.209Z,10.40
2018-11-13T21:24:09.841Z,10.30
2018-11-13T21:26:37.609Z,10.30
2018-11-13T21:29:06.020Z,10.30
2018-11-13T21:31:34.204Z,10.20
2018-11-13T21:34:02.386Z,10.20
2018-11-13T21:36:30.574Z,10.20
2018-11-13T21:38:58.740Z,10.20
2018-11-13T21:41:26.943Z,10.20
2018-11-13T21:43:55.100Z,10.20
2018-11-13T21:46:23.298Z,10.20
2018-11-13T21:48:51.495Z,10.10
2018-11-13T21:51:19.668Z,9.90
2018-11-13T21:53:47.831Z,9.90
2018-11-13T21:56:15.996Z,9.70
2018-11-13T21:58:44.160Z,9.70
2018-11-13T22:01:12.367Z,9.70
2018-11-13T22:03:40.576Z,9.80
2018-11-13T22:06:08.701Z,9.60
2018-11-13T22:08:36.867Z,9.70
2018-11-13T22:11:05.267Z,9.80
2018-11-13T22:13:33.442Z,9.90
2018-11-13T22:16:01.699Z,9.80
2018-11-13T22:20:57.852Z,9.90
2018-11-13T22:25:53.982Z,9.90
2018-11-13T22:28:22.192Z,9.90
2018-11-13T22:30:50.335Z,9.90
2018-11-13T22:33:18.647Z,9.80
2018-11-13T22:35:46.819Z,9.70
2018-11-13T22:38:14.995Z,9.80
2018-11-13T22:40:43.215Z,9.80
2018-11-13T22:43:11.384Z,9.90
2018-11-13T22:45:39.565Z,9.90
2018-11-13T22:48:07.754Z,9.90
2018-11-13T22:50:35.943Z,9.80
2018-11-13T22:53:04.216Z,9.90
2018-11-13T22:55:32.419Z,9.90
2018-11-13T22:58:01.454Z,10.00
2018-11-13T23:00:37.144Z,10.00
2018-11-13T23:03:06.671Z,10.00
2018-11-13T23:05:34.839Z,9.80
2018-11-13T23:08:02.994Z,9.80
2018-11-13T23:10:31.289Z,9.70
2018-11-13T23:12:59.462Z,9.70
2018-11-13T23:15:27.710Z,9.50
2018-11-13T23:17:55.880Z,9.20
2018-11-13T23:20:24.063Z,9.30
2018-11-13T23:25:20.590Z,9.20
2018-11-13T23:30:19.743Z,9.20
2018-11-13T23:32:47.936Z,9.10
2018-11-13T23:35:16.255Z,9.10
2018-11-13T23:37:45.484Z,9.10
2018-11-13T23:43:21.369Z,9.10
2018-11-13T23:45:49.533Z,9.10
2018-11-13T23:48:17.687Z,9.10
2018-11-13T23:50:46.863Z,9.10
2018-11-13T23:53:15.087Z,9.20
2018-11-13T23:55:43.326Z,9.10
2018-11-13T23:58:11.411Z,9.10
